sensor_id;sensor_type;location;lat;lon;timestamp;P1;durP1;ratioP1;P2;durP2;ratioP2
69369;SDS011;56530;42.640;23.372;2022-12-20T00:00:48;7.47;;;5.20;;
69369;SDS011;56530;42.640;23.372;2022-12-20T00:03:14;9.80;;;6.87;;
69369;SDS011;56530;42.640;23.372;2022-12-20T00:05:40;9.53;;;5.90;;
69369;SDS011;56530;42.640;23.372;2022-12-20T00:08:07;11.53;;;6.50;;
69369;SDS011;56530;42.640;23.372;2022-12-20T00:10:40;11.53;;;6.63;;
69369;SDS011;56530;42.640;23.372;2022-12-20T00:13:07;9.40;;;6.87;;
69369;SDS011;56530;42.640;23.372;2022-12-20T00:15:33;9.80;;;6.80;;
69369;SDS011;56530;42.640;23.372;2022-12-20T00:17:58;8.57;;;6.47;;
69369;SDS011;56530;42.640;23.372;2022-12-20T00:20:24;10.70;;;6.40;;
69369;SDS011;56530;42.640;23.372;2022-12-20T00:22:50;8.90;;;6.17;;
69369;SDS011;56530;42.640;23.372;2022-12-20T00:25:16;11.77;;;7.03;;
69369;SDS011;56530;42.640;23.372;2022-12-20T00:27:41;7.50;;;5.17;;
69369;SDS011;56530;42.640;23.372;2022-12-20T00:30:07;13.00;;;6.80;;
69369;SDS011;56530;42.640;23.372;2022-12-20T00:32:32;11.77;;;7.87;;
69369;SDS011;56530;42.640;23.372;2022-12-20T00:34:58;13.27;;;6.40;;
69369;SDS011;56530;42.640;23.372;2022-12-20T00:37:23;12.53;;;6.27;;
69369;SDS011;56530;42.640;23.372;2022-12-20T00:39:49;10.23;;;6.53;;
69369;SDS011;56530;42.640;23.372;2022-12-20T00:42:14;12.13;;;8.17;;
69369;SDS011;56530;42.640;23.372;2022-12-20T00:44:40;11.60;;;6.77;;
69369;SDS011;56530;42.640;23.372;2022-12-20T00:47:05;14.10;;;6.70;;
69369;SDS011;56530;42.640;23.372;2022-12-20T00:49:31;9.43;;;6.90;;
69369;SDS011;56530;42.640;23.372;2022-12-20T00:51:56;9.20;;;6.90;;
69369;SDS011;56530;42.640;23.372;2022-12-20T00:54:21;14.43;;;7.43;;
69369;SDS011;56530;42.640;23.372;2022-12-20T00:56:47;10.70;;;5.97;;
69369;SDS011;56530;42.640;23.372;2022-12-20T00:59:12;8.47;;;5.90;;
69369;SDS011;56530;42.640;23.372;2022-12-20T01:01:38;7.97;;;5.47;;
69369;SDS011;56530;42.640;23.372;2022-12-20T01:04:03;10.20;;;6.03;;
69369;SDS011;56530;42.640;23.372;2022-12-20T01:06:29;14.97;;;6.00;;
69369;SDS011;56530;42.640;23.372;2022-12-20T01:08:55;13.83;;;7.00;;
69369;SDS011;56530;42.640;23.372;2022-12-20T01:11:28;9.90;;;6.63;;
69369;SDS011;56530;42.640;23.372;2022-12-20T01:13:55;12.20;;;7.10;;
69369;SDS011;56530;42.640;23.372;2022-12-20T01:16:23;10.77;;;6.80;;
69369;SDS011;56530;42.640;23.372;2022-12-20T01:18:59;12.10;;;6.27;;
69369;SDS011;56530;42.640;23.372;2022-12-20T01:21:25;10.63;;;6.47;;
69369;SDS011;56530;42.640;23.372;2022-12-20T01:23:51;9.60;;;6.47;;
69369;SDS011;56530;42.640;23.372;2022-12-20T01:26:18;9.57;;;6.73;;
69369;SDS011;56530;42.640;23.372;2022-12-20T01:28:46;9.80;;;5.93;;
69369;SDS011;56530;42.640;23.372;2022-12-20T01:31:14;12.90;;;6.90;;
69369;SDS011;56530;42.640;23.372;2022-12-20T01:33:40;13.67;;;6.90;;
69369;SDS011;56530;42.640;23.372;2022-12-20T01:36:07;13.63;;;7.47;;
69369;SDS011;56530;42.640;23.372;2022-12-20T01:38:35;12.10;;;7.27;;
69369;SDS011;56530;42.640;23.372;2022-12-20T01:41:00;10.40;;;6.63;;
69369;SDS011;56530;42.640;23.372;2022-12-20T01:44:01;10.33;;;7.13;;
69369;SDS011;56530;42.640;23.372;2022-12-20T01:46:20;9.27;;;6.50;;
69369;SDS011;56530;42.640;23.372;2022-12-20T01:48:48;8.87;;;5.37;;
69369;SDS011;56530;42.640;23.372;2022-12-20T01:51:35;11.90;;;7.13;;
69369;SDS011;56530;42.640;23.372;2022-12-20T01:54:04;9.03;;;6.33;;
69369;SDS011;56530;42.640;23.372;2022-12-20T01:56:32;9.30;;;6.40;;
69369;SDS011;56530;42.640;23.372;2022-12-20T01:58:58;14.57;;;8.03;;
69369;SDS011;56530;42.640;23.372;2022-12-20T02:01:24;13.27;;;7.63;;
69369;SDS011;56530;42.640;23.372;2022-12-20T02:03:50;8.20;;;5.23;;
69369;SDS011;56530;42.640;23.372;2022-12-20T02:06:17;10.20;;;5.83;;
69369;SDS011;56530;42.640;23.372;2022-12-20T02:08:44;9.93;;;6.33;;
69369;SDS011;56530;42.640;23.372;2022-12-20T02:11:18;10.90;;;7.43;;
69369;SDS011;56530;42.640;23.372;2022-12-20T02:14:07;10.33;;;6.60;;
69369;SDS011;56530;42.640;23.372;2022-12-20T02:16:37;9.33;;;5.30;;
69369;SDS011;56530;42.640;23.372;2022-12-20T02:24:37;11.07;;;6.60;;
69369;SDS011;56530;42.640;23.372;2022-12-20T02:27:13;10.53;;;6.50;;
69369;SDS011;56530;42.640;23.372;2022-12-20T02:32:38;9.50;;;5.80;;
69369;SDS011;56530;42.640;23.372;2022-12-20T02:35:07;13.97;;;6.90;;
69369;SDS011;56530;42.640;23.372;2022-12-20T02:37:33;12.83;;;8.07;;
69369;SDS011;56530;42.640;23.372;2022-12-20T02:39:59;12.27;;;7.37;;
69369;SDS011;56530;42.640;23.372;2022-12-20T02:42:25;9.13;;;6.77;;
69369;SDS011;56530;42.640;23.372;2022-12-20T02:44:56;10.27;;;7.87;;
69369;SDS011;56530;42.640;23.372;2022-12-20T02:47:40;9.80;;;6.80;;
69369;SDS011;56530;42.640;23.372;2022-12-20T02:50:07;11.43;;;6.93;;
69369;SDS011;56530;42.640;23.372;2022-12-20T02:52:33;12.80;;;7.37;;
69369;SDS011;56530;42.640;23.372;2022-12-20T02:54:59;7.93;;;5.67;;
69369;SDS011;56530;42.640;23.372;2022-12-20T02:57:26;8.37;;;5.50;;
69369;SDS011;56530;42.640;23.372;2022-12-20T03:02:32;13.40;;;7.00;;
69369;SDS011;56530;42.640;23.372;2022-12-20T03:05:18;13.40;;;6.23;;
69369;SDS011;56530;42.640;23.372;2022-12-20T03:07:45;12.37;;;6.73;;
69369;SDS011;56530;42.640;23.372;2022-12-20T03:10:11;15.10;;;7.20;;
69369;SDS011;56530;42.640;23.372;2022-12-20T03:12:36;8.80;;;6.90;;
69369;SDS011;56530;42.640;23.372;2022-12-20T03:15:01;8.10;;;5.93;;
69369;SDS011;56530;42.640;23.372;2022-12-20T03:17:27;12.13;;;7.43;;
69369;SDS011;56530;42.640;23.372;2022-12-20T03:19:52;9.70;;;7.03;;
69369;SDS011;56530;42.640;23.372;2022-12-20T03:22:18;8.03;;;6.13;;
69369;SDS011;56530;42.640;23.372;2022-12-20T03:24:44;9.70;;;6.20;;
69369;SDS011;56530;42.640;23.372;2022-12-20T03:27:09;11.07;;;7.53;;
69369;SDS011;56530;42.640;23.372;2022-12-20T03:29:35;14.37;;;7.87;;
69369;SDS011;56530;42.640;23.372;2022-12-20T03:32:00;11.43;;;6.63;;
69369;SDS011;56530;42.640;23.372;2022-12-20T03:34:25;13.33;;;7.63;;
69369;SDS011;56530;42.640;23.372;2022-12-20T03:36:51;14.10;;;8.43;;
69369;SDS011;56530;42.640;23.372;2022-12-20T03:39:16;12.53;;;7.90;;
69369;SDS011;56530;42.640;23.372;2022-12-20T03:41:42;13.67;;;8.63;;
69369;SDS011;56530;42.640;23.372;2022-12-20T03:44:07;14.07;;;8.33;;
69369;SDS011;56530;42.640;23.372;2022-12-20T03:46:32;9.37;;;6.77;;
69369;SDS011;56530;42.640;23.372;2022-12-20T03:48:58;12.87;;;8.23;;
69369;SDS011;56530;42.640;23.372;2022-12-20T03:51:23;16.67;;;9.37;;
69369;SDS011;56530;42.640;23.372;2022-12-20T03:53:49;14.60;;;8.60;;
69369;SDS011;56530;42.640;23.372;2022-12-20T03:56:14;15.93;;;9.23;;
69369;SDS011;56530;42.640;23.372;2022-12-20T03:58:40;13.93;;;8.83;;
69369;SDS011;56530;42.640;23.372;2022-12-20T04:01:25;13.97;;;7.97;;
69369;SDS011;56530;42.640;23.372;2022-12-20T04:03:51;12.63;;;8.23;;
69369;SDS011;56530;42.640;23.372;2022-12-20T04:06:17;13.80;;;8.37;;
69369;SDS011;56530;42.640;23.372;2022-12-20T04:08:42;17.00;;;8.77;;
69369;SDS011;56530;42.640;23.372;2022-12-20T04:11:08;15.13;;;7.77;;
69369;SDS011;56530;42.640;23.372;2022-12-20T04:13:44;13.10;;;8.30;;
69369;SDS011;56530;42.640;23.372;2022-12-20T04:16:10;13.40;;;10.20;;
69369;SDS011;56530;42.640;23.372;2022-12-20T04:18:36;14.57;;;8.33;;
69369;SDS011;56530;42.640;23.372;2022-12-20T04:21:02;12.47;;;8.40;;
69369;SDS011;56530;42.640;23.372;2022-12-20T04:23:28;15.83;;;7.73;;
69369;SDS011;56530;42.640;23.372;2022-12-20T04:25:53;17.93;;;9.67;;
69369;SDS011;56530;42.640;23.372;2022-12-20T04:28:19;12.00;;;8.03;;
69369;SDS011;56530;42.640;23.372;2022-12-20T04:30:44;13.77;;;7.30;;
69369;SDS011;56530;42.640;23.372;2022-12-20T04:33:09;14.33;;;9.23;;
69369;SDS011;56530;42.640;23.372;2022-12-20T04:35:38;14.33;;;8.33;;
69369;SDS011;56530;42.640;23.372;2022-12-20T04:38:03;19.13;;;8.73;;
69369;SDS011;56530;42.640;23.372;2022-12-20T04:40:29;13.90;;;8.87;;
69369;SDS011;56530;42.640;23.372;2022-12-20T04:42:54;13.80;;;8.13;;
69369;SDS011;56530;42.640;23.372;2022-12-20T04:45:19;14.80;;;8.57;;
69369;SDS011;56530;42.640;23.372;2022-12-20T04:47:45;13.70;;;8.60;;
69369;SDS011;56530;42.640;23.372;2022-12-20T04:50:10;22.07;;;9.23;;
69369;SDS011;56530;42.640;23.372;2022-12-20T04:52:36;14.10;;;8.87;;
69369;SDS011;56530;42.640;23.372;2022-12-20T04:55:20;12.90;;;9.17;;
69369;SDS011;56530;42.640;23.372;2022-12-20T04:57:45;16.53;;;9.27;;
69369;SDS011;56530;42.640;23.372;2022-12-20T05:00:11;15.37;;;9.27;;
69369;SDS011;56530;42.640;23.372;2022-12-20T05:02:36;15.83;;;8.73;;
69369;SDS011;56530;42.640;23.372;2022-12-20T05:05:02;19.00;;;10.33;;
69369;SDS011;56530;42.640;23.372;2022-12-20T05:07:27;19.43;;;9.37;;
69369;SDS011;56530;42.640;23.372;2022-12-20T05:09:53;14.47;;;8.77;;
69369;SDS011;56530;42.640;23.372;2022-12-20T05:12:18;14.10;;;9.33;;
69369;SDS011;56530;42.640;23.372;2022-12-20T05:14:43;13.17;;;8.90;;
69369;SDS011;56530;42.640;23.372;2022-12-20T05:17:09;18.73;;;8.87;;
69369;SDS011;56530;42.640;23.372;2022-12-20T05:19:34;13.27;;;9.67;;
69369;SDS011;56530;42.640;23.372;2022-12-20T05:22:00;14.57;;;9.53;;
69369;SDS011;56530;42.640;23.372;2022-12-20T05:24:43;11.60;;;7.70;;
69369;SDS011;56530;42.640;23.372;2022-12-20T05:27:27;14.70;;;9.93;;
69369;SDS011;56530;42.640;23.372;2022-12-20T05:29:54;18.50;;;9.53;;
69369;SDS011;56530;42.640;23.372;2022-12-20T05:32:19;18.67;;;11.00;;
69369;SDS011;56530;42.640;23.372;2022-12-20T05:34:45;15.37;;;9.77;;
69369;SDS011;56530;42.640;23.372;2022-12-20T05:37:10;15.57;;;9.87;;
69369;SDS011;56530;42.640;23.372;2022-12-20T05:39:35;14.13;;;9.30;;
69369;SDS011;56530;42.640;23.372;2022-12-20T05:42:01;18.70;;;9.33;;
69369;SDS011;56530;42.640;23.372;2022-12-20T05:44:26;17.13;;;9.97;;
69369;SDS011;56530;42.640;23.372;2022-12-20T05:46:52;12.27;;;9.30;;
69369;SDS011;56530;42.640;23.372;2022-12-20T05:49:17;18.70;;;10.90;;
69369;SDS011;56530;42.640;23.372;2022-12-20T05:51:42;16.97;;;10.23;;
69369;SDS011;56530;42.640;23.372;2022-12-20T05:54:08;20.87;;;9.63;;
69369;SDS011;56530;42.640;23.372;2022-12-20T05:56:33;15.53;;;10.40;;
69369;SDS011;56530;42.640;23.372;2022-12-20T05:58:58;14.23;;;9.60;;
69369;SDS011;56530;42.640;23.372;2022-12-20T06:01:24;15.37;;;9.47;;
69369;SDS011;56530;42.640;23.372;2022-12-20T06:03:49;15.60;;;10.43;;
69369;SDS011;56530;42.640;23.372;2022-12-20T06:06:15;16.83;;;8.90;;
69369;SDS011;56530;42.640;23.372;2022-12-20T06:08:40;14.43;;;9.60;;
69369;SDS011;56530;42.640;23.372;2022-12-20T06:11:06;17.13;;;10.10;;
69369;SDS011;56530;42.640;23.372;2022-12-20T06:13:31;21.30;;;10.03;;
69369;SDS011;56530;42.640;23.372;2022-12-20T06:15:57;20.83;;;9.40;;
69369;SDS011;56530;42.640;23.372;2022-12-20T06:18:24;18.13;;;10.30;;
69369;SDS011;56530;42.640;23.372;2022-12-20T06:20:50;14.13;;;9.07;;
69369;SDS011;56530;42.640;23.372;2022-12-20T06:23:16;16.50;;;10.03;;
69369;SDS011;56530;42.640;23.372;2022-12-20T06:25:41;15.70;;;9.80;;
69369;SDS011;56530;42.640;23.372;2022-12-20T06:28:07;17.77;;;8.97;;
69369;SDS011;56530;42.640;23.372;2022-12-20T06:30:33;13.63;;;9.50;;
69369;SDS011;56530;42.640;23.372;2022-12-20T06:32:59;15.57;;;10.17;;
69369;SDS011;56530;42.640;23.372;2022-12-20T06:35:24;17.20;;;10.17;;
69369;SDS011;56530;42.640;23.372;2022-12-20T06:37:50;17.90;;;10.63;;
69369;SDS011;56530;42.640;23.372;2022-12-20T06:40:15;22.57;;;10.57;;
69369;SDS011;56530;42.640;23.372;2022-12-20T06:42:41;17.37;;;10.17;;
69369;SDS011;56530;42.640;23.372;2022-12-20T06:45:06;18.23;;;9.80;;
69369;SDS011;56530;42.640;23.372;2022-12-20T06:47:32;22.93;;;10.67;;
69369;SDS011;56530;42.640;23.372;2022-12-20T06:49:58;17.27;;;10.30;;
69369;SDS011;56530;42.640;23.372;2022-12-20T06:52:23;18.20;;;10.20;;
69369;SDS011;56530;42.640;23.372;2022-12-20T06:54:49;20.50;;;11.07;;
69369;SDS011;56530;42.640;23.372;2022-12-20T06:57:14;22.67;;;11.43;;
69369;SDS011;56530;42.640;23.372;2022-12-20T06:59:39;22.43;;;11.03;;
69369;SDS011;56530;42.640;23.372;2022-12-20T07:02:05;20.57;;;10.53;;
69369;SDS011;56530;42.640;23.372;2022-12-20T07:04:31;17.20;;;10.23;;
69369;SDS011;56530;42.640;23.372;2022-12-20T07:06:56;21.87;;;10.33;;
69369;SDS011;56530;42.640;23.372;2022-12-20T07:09:22;19.30;;;11.80;;
69369;SDS011;56530;42.640;23.372;2022-12-20T07:11:47;17.73;;;11.33;;
69369;SDS011;56530;42.640;23.372;2022-12-20T07:14:13;16.27;;;11.57;;
69369;SDS011;56530;42.640;23.372;2022-12-20T07:16:38;19.93;;;11.80;;
69369;SDS011;56530;42.640;23.372;2022-12-20T07:19:06;20.57;;;10.80;;
69369;SDS011;56530;42.640;23.372;2022-12-20T07:21:31;18.63;;;9.87;;
69369;SDS011;56530;42.640;23.372;2022-12-20T07:23:56;12.33;;;8.87;;
69369;SDS011;56530;42.640;23.372;2022-12-20T07:26:22;17.33;;;9.30;;
69369;SDS011;56530;42.640;23.372;2022-12-20T07:28:47;16.70;;;9.67;;
69369;SDS011;56530;42.640;23.372;2022-12-20T07:31:13;11.83;;;7.80;;
69369;SDS011;56530;42.640;23.372;2022-12-20T07:33:38;16.70;;;8.37;;
69369;SDS011;56530;42.640;23.372;2022-12-20T07:36:08;15.13;;;8.97;;
69369;SDS011;56530;42.640;23.372;2022-12-20T07:38:35;14.47;;;8.30;;
69369;SDS011;56530;42.640;23.372;2022-12-20T07:41:05;18.33;;;9.03;;
69369;SDS011;56530;42.640;23.372;2022-12-20T07:43:41;17.87;;;10.30;;
69369;SDS011;56530;42.640;23.372;2022-12-20T07:46:07;17.37;;;9.03;;
69369;SDS011;56530;42.640;23.372;2022-12-20T07:48:33;18.77;;;9.40;;
69369;SDS011;56530;42.640;23.372;2022-12-20T07:51:05;17.17;;;10.00;;
69369;SDS011;56530;42.640;23.372;2022-12-20T07:53:31;15.53;;;9.97;;
69369;SDS011;56530;42.640;23.372;2022-12-20T07:55:59;15.87;;;7.57;;
69369;SDS011;56530;42.640;23.372;2022-12-20T07:58:25;10.97;;;6.73;;
69369;SDS011;56530;42.640;23.372;2022-12-20T08:00:51;13.53;;;7.23;;
69369;SDS011;56530;42.640;23.372;2022-12-20T08:03:18;10.30;;;6.73;;
69369;SDS011;56530;42.640;23.372;2022-12-20T08:05:46;14.37;;;7.33;;
69369;SDS011;56530;42.640;23.372;2022-12-20T08:08:15;13.90;;;6.63;;
69369;SDS011;56530;42.640;23.372;2022-12-20T08:10:40;13.00;;;6.77;;
69369;SDS011;56530;42.640;23.372;2022-12-20T08:13:06;12.47;;;6.90;;
69369;SDS011;56530;42.640;23.372;2022-12-20T08:15:32;10.53;;;7.10;;
69369;SDS011;56530;42.640;23.372;2022-12-20T08:17:59;12.77;;;8.40;;
69369;SDS011;56530;42.640;23.372;2022-12-20T08:20:24;19.17;;;9.27;;
69369;SDS011;56530;42.640;23.372;2022-12-20T08:22:50;11.50;;;7.33;;
69369;SDS011;56530;42.640;23.372;2022-12-20T08:25:15;11.53;;;7.37;;
69369;SDS011;56530;42.640;23.372;2022-12-20T08:27:41;12.13;;;7.60;;
69369;SDS011;56530;42.640;23.372;2022-12-20T08:30:06;12.40;;;7.00;;
69369;SDS011;56530;42.640;23.372;2022-12-20T08:32:34;11.47;;;7.33;;
69369;SDS011;56530;42.640;23.372;2022-12-20T08:35:00;12.40;;;7.90;;
69369;SDS011;56530;42.640;23.372;2022-12-20T08:37:25;12.60;;;6.87;;
69369;SDS011;56530;42.640;23.372;2022-12-20T08:39:51;8.77;;;6.43;;
69369;SDS011;56530;42.640;23.372;2022-12-20T08:42:16;10.53;;;6.17;;
69369;SDS011;56530;42.640;23.372;2022-12-20T08:44:42;11.80;;;7.83;;
69369;SDS011;56530;42.640;23.372;2022-12-20T08:47:08;11.53;;;7.47;;
69369;SDS011;56530;42.640;23.372;2022-12-20T08:49:34;14.80;;;7.37;;
69369;SDS011;56530;42.640;23.372;2022-12-20T08:52:00;13.30;;;7.77;;
69369;SDS011;56530;42.640;23.372;2022-12-20T08:54:25;11.07;;;7.63;;
69369;SDS011;56530;42.640;23.372;2022-12-20T08:56:51;12.33;;;6.60;;
69369;SDS011;56530;42.640;23.372;2022-12-20T08:59:16;12.30;;;8.63;;
69369;SDS011;56530;42.640;23.372;2022-12-20T09:01:42;12.90;;;6.93;;
69369;SDS011;56530;42.640;23.372;2022-12-20T09:04:08;14.80;;;8.57;;
69369;SDS011;56530;42.640;23.372;2022-12-20T09:06:34;12.90;;;6.57;;
69369;SDS011;56530;42.640;23.372;2022-12-20T09:09:00;13.43;;;7.57;;
69369;SDS011;56530;42.640;23.372;2022-12-20T09:11:25;13.23;;;7.83;;
69369;SDS011;56530;42.640;23.372;2022-12-20T09:13:52;14.23;;;7.20;;
69369;SDS011;56530;42.640;23.372;2022-12-20T09:16:22;10.70;;;6.60;;
69369;SDS011;56530;42.640;23.372;2022-12-20T09:18:50;12.27;;;7.13;;
69369;SDS011;56530;42.640;23.372;2022-12-20T09:21:17;10.83;;;6.47;;
69369;SDS011;56530;42.640;23.372;2022-12-20T09:23:43;10.07;;;7.23;;
69369;SDS011;56530;42.640;23.372;2022-12-20T09:26:12;10.23;;;6.50;;
69369;SDS011;56530;42.640;23.372;2022-12-20T09:28:39;9.47;;;6.40;;
69369;SDS011;56530;42.640;23.372;2022-12-20T09:31:05;10.73;;;7.33;;
69369;SDS011;56530;42.640;23.372;2022-12-20T09:33:32;14.97;;;7.23;;
69369;SDS011;56530;42.640;23.372;2022-12-20T09:35:58;13.07;;;7.20;;
69369;SDS011;56530;42.640;23.372;2022-12-20T09:38:24;12.07;;;7.83;;
69369;SDS011;56530;42.640;23.372;2022-12-20T09:40:51;13.87;;;6.87;;
69369;SDS011;56530;42.640;23.372;2022-12-20T09:43:17;10.93;;;7.10;;
69369;SDS011;56530;42.640;23.372;2022-12-20T09:45:45;10.80;;;7.23;;
69369;SDS011;56530;42.640;23.372;2022-12-20T09:48:15;14.57;;;8.17;;
69369;SDS011;56530;42.640;23.372;2022-12-20T09:59:32;13.13;;;7.73;;
69369;SDS011;56530;42.640;23.372;2022-12-20T10:01:59;13.77;;;8.30;;
69369;SDS011;56530;42.640;23.372;2022-12-20T10:04:25;11.87;;;6.73;;
69369;SDS011;56530;42.640;23.372;2022-12-20T10:12:54;11.90;;;7.57;;
69369;SDS011;56530;42.640;23.372;2022-12-20T10:15:45;10.63;;;7.40;;
69369;SDS011;56530;42.640;23.372;2022-12-20T10:18:38;14.97;;;6.87;;
69369;SDS011;56530;42.640;23.372;2022-12-20T10:21:16;12.23;;;6.80;;
69369;SDS011;56530;42.640;23.372;2022-12-20T10:23:52;10.53;;;6.60;;
69369;SDS011;56530;42.640;23.372;2022-12-20T10:26:24;9.93;;;6.83;;
69369;SDS011;56530;42.640;23.372;2022-12-20T10:28:50;10.67;;;6.67;;
69369;SDS011;56530;42.640;23.372;2022-12-20T10:31:16;17.13;;;6.33;;
69369;SDS011;56530;42.640;23.372;2022-12-20T10:33:43;12.83;;;6.97;;
69369;SDS011;56530;42.640;23.372;2022-12-20T10:38:51;10.17;;;6.27;;
69369;SDS011;56530;42.640;23.372;2022-12-20T10:41:19;8.70;;;5.97;;
69369;SDS011;56530;42.640;23.372;2022-12-20T10:44:31;9.43;;;6.17;;
69369;SDS011;56530;42.640;23.372;2022-12-20T10:46:40;11.47;;;5.53;;
69369;SDS011;56530;42.640;23.372;2022-12-20T10:49:40;9.20;;;6.33;;
69369;SDS011;56530;42.640;23.372;2022-12-20T10:52:02;8.47;;;5.40;;
69369;SDS011;56530;42.640;23.372;2022-12-20T10:54:37;9.73;;;6.13;;
69369;SDS011;56530;42.640;23.372;2022-12-20T10:57:17;7.17;;;5.47;;
69369;SDS011;56530;42.640;23.372;2022-12-20T10:59:49;7.93;;;6.00;;
69369;SDS011;56530;42.640;23.372;2022-12-20T11:02:30;8.93;;;6.10;;
69369;SDS011;56530;42.640;23.372;2022-12-20T11:07:30;7.23;;;4.97;;
69369;SDS011;56530;42.640;23.372;2022-12-20T11:10:02;8.30;;;5.73;;
69369;SDS011;56530;42.640;23.372;2022-12-20T11:15:20;12.20;;;5.87;;
69369;SDS011;56530;42.640;23.372;2022-12-20T11:17:51;10.13;;;6.47;;
69369;SDS011;56530;42.640;23.372;2022-12-20T11:20:41;7.40;;;5.80;;
69369;SDS011;56530;42.640;23.372;2022-12-20T11:26:06;12.30;;;5.77;;
69369;SDS011;56530;42.640;23.372;2022-12-20T11:28:50;8.23;;;5.57;;
69369;SDS011;56530;42.640;23.372;2022-12-20T11:31:41;10.03;;;6.23;;
69369;SDS011;56530;42.640;23.372;2022-12-20T11:34:22;8.73;;;4.93;;
69369;SDS011;56530;42.640;23.372;2022-12-20T11:46:13;8.67;;;5.97;;
69369;SDS011;56530;42.640;23.372;2022-12-20T11:51:41;7.67;;;5.33;;
69369;SDS011;56530;42.640;23.372;2022-12-20T11:54:16;8.77;;;5.37;;
69369;SDS011;56530;42.640;23.372;2022-12-20T11:56:47;7.43;;;4.53;;
69369;SDS011;56530;42.640;23.372;2022-12-20T12:02:25;14.37;;;5.10;;
69369;SDS011;56530;42.640;23.372;2022-12-20T12:04:57;8.53;;;5.30;;
69369;SDS011;56530;42.640;23.372;2022-12-20T12:07:27;7.70;;;4.40;;
69369;SDS011;56530;42.640;23.372;2022-12-20T12:09:59;7.60;;;4.50;;
69369;SDS011;56530;42.640;23.372;2022-12-20T12:12:32;9.57;;;5.20;;
69369;SDS011;56530;42.640;23.372;2022-12-20T12:15:03;6.93;;;4.13;;
69369;SDS011;56530;42.640;23.372;2022-12-20T12:17:38;7.47;;;4.80;;
69369;SDS011;56530;42.640;23.372;2022-12-20T12:25:52;7.87;;;4.63;;
69369;SDS011;56530;42.640;23.372;2022-12-20T12:28:18;8.27;;;4.60;;
69369;SDS011;56530;42.640;23.372;2022-12-20T12:30:46;11.17;;;4.90;;
69369;SDS011;56530;42.640;23.372;2022-12-20T12:33:19;7.87;;;4.87;;
69369;SDS011;56530;42.640;23.372;2022-12-20T12:38:55;8.37;;;4.93;;
69369;SDS011;56530;42.640;23.372;2022-12-20T12:47:18;8.63;;;5.30;;
69369;SDS011;56530;42.640;23.372;2022-12-20T12:49:49;7.40;;;4.90;;
69369;SDS011;56530;42.640;23.372;2022-12-20T12:52:27;9.23;;;5.67;;
69369;SDS011;56530;42.640;23.372;2022-12-20T12:54:54;9.17;;;4.87;;
69369;SDS011;56530;42.640;23.372;2022-12-20T12:57:19;14.53;;;6.00;;
69369;SDS011;56530;42.640;23.372;2022-12-20T12:59:46;9.00;;;5.90;;
69369;SDS011;56530;42.640;23.372;2022-12-20T13:20:33;13.73;;;8.10;;
69369;SDS011;56530;42.640;23.372;2022-12-20T13:25:49;11.25;;;8.00;;
69369;SDS011;56530;42.640;23.372;2022-12-20T13:30:47;13.23;;;7.10;;
69369;SDS011;56530;42.640;23.372;2022-12-20T13:38:47;7.72;;;5.22;;
69369;SDS011;56530;42.640;23.372;2022-12-20T13:41:31;7.38;;;4.90;;
69369;SDS011;56530;42.640;23.372;2022-12-20T13:44:44;7.35;;;4.72;;
69369;SDS011;56530;42.640;23.372;2022-12-20T13:49:51;6.83;;;4.70;;
69369;SDS011;56530;42.640;23.372;2022-12-20T13:52:20;5.70;;;4.00;;
69369;SDS011;56530;42.640;23.372;2022-12-20T13:54:47;5.13;;;4.27;;
69369;SDS011;56530;42.640;23.372;2022-12-20T13:57:15;7.00;;;4.30;;
69369;SDS011;56530;42.640;23.372;2022-12-20T13:59:46;5.13;;;4.00;;
69369;SDS011;56530;42.640;23.372;2022-12-20T14:02:19;5.13;;;4.10;;
69369;SDS011;56530;42.640;23.372;2022-12-20T14:04:49;5.80;;;4.43;;
69369;SDS011;56530;42.640;23.372;2022-12-20T14:07:23;9.53;;;4.73;;
69369;SDS011;56530;42.640;23.372;2022-12-20T14:09:53;9.27;;;3.97;;
69369;SDS011;56530;42.640;23.372;2022-12-20T14:12:20;5.77;;;4.00;;
69369;SDS011;56530;42.640;23.372;2022-12-20T14:14:47;7.43;;;4.23;;
69369;SDS011;56530;42.640;23.372;2022-12-20T14:17:21;13.47;;;5.60;;
69369;SDS011;56530;42.640;23.372;2022-12-20T14:20:05;6.07;;;4.07;;
69369;SDS011;56530;42.640;23.372;2022-12-20T14:22:31;7.40;;;4.13;;
69369;SDS011;56530;42.640;23.372;2022-12-20T14:24:57;13.90;;;4.27;;
69369;SDS011;56530;42.640;23.372;2022-12-20T14:27:23;9.67;;;5.07;;
69369;SDS011;56530;42.640;23.372;2022-12-20T14:29:49;6.03;;;4.10;;
69369;SDS011;56530;42.640;23.372;2022-12-20T14:32:16;7.43;;;4.47;;
69369;SDS011;56530;42.640;23.372;2022-12-20T14:34:43;7.17;;;4.67;;
69369;SDS011;56530;42.640;23.372;2022-12-20T14:40:03;9.27;;;4.67;;
69369;SDS011;56530;42.640;23.372;2022-12-20T14:42:41;8.63;;;4.63;;
69369;SDS011;56530;42.640;23.372;2022-12-20T14:47:35;7.03;;;4.73;;
69369;SDS011;56530;42.640;23.372;2022-12-20T14:50:03;6.77;;;4.20;;
69369;SDS011;56530;42.640;23.372;2022-12-20T15:02:36;11.37;;;4.97;;
69369;SDS011;56530;42.640;23.372;2022-12-20T15:13:45;9.27;;;5.23;;
69369;SDS011;56530;42.640;23.372;2022-12-20T15:16:16;7.33;;;5.10;;
69369;SDS011;56530;42.640;23.372;2022-12-20T15:18:43;8.60;;;4.80;;
69369;SDS011;56530;42.640;23.372;2022-12-20T15:21:13;6.13;;;4.73;;
69369;SDS011;56530;42.640;23.372;2022-12-20T15:23:48;8.30;;;5.70;;
69369;SDS011;56530;42.640;23.372;2022-12-20T15:26:19;9.80;;;5.80;;
69369;SDS011;56530;42.640;23.372;2022-12-20T15:28:46;5.57;;;4.27;;
69369;SDS011;56530;42.640;23.372;2022-12-20T15:31:13;7.23;;;4.83;;
69369;SDS011;56530;42.640;23.372;2022-12-20T15:33:39;7.10;;;5.13;;
69369;SDS011;56530;42.640;23.372;2022-12-20T15:36:06;9.27;;;5.00;;
69369;SDS011;56530;42.640;23.372;2022-12-20T15:38:39;14.40;;;5.33;;
69369;SDS011;56530;42.640;23.372;2022-12-20T15:41:04;6.70;;;5.17;;
69369;SDS011;56530;42.640;23.372;2022-12-20T15:43:35;9.20;;;4.93;;
69369;SDS011;56530;42.640;23.372;2022-12-20T15:46:02;12.40;;;4.97;;
69369;SDS011;56530;42.640;23.372;2022-12-20T15:48:27;6.10;;;4.47;;
69369;SDS011;56530;42.640;23.372;2022-12-20T15:50:54;8.13;;;4.53;;
69369;SDS011;56530;42.640;23.372;2022-12-20T15:53:27;9.03;;;4.97;;
69369;SDS011;56530;42.640;23.372;2022-12-20T15:55:55;6.90;;;4.37;;
69369;SDS011;56530;42.640;23.372;2022-12-20T15:58:21;7.87;;;5.17;;
69369;SDS011;56530;42.640;23.372;2022-12-20T16:00:47;7.13;;;4.83;;
69369;SDS011;56530;42.640;23.372;2022-12-20T16:03:19;7.47;;;5.03;;
69369;SDS011;56530;42.640;23.372;2022-12-20T16:05:47;10.97;;;5.07;;
69369;SDS011;56530;42.640;23.372;2022-12-20T16:08:14;13.20;;;5.40;;
69369;SDS011;56530;42.640;23.372;2022-12-20T16:10:40;5.33;;;4.27;;
69369;SDS011;56530;42.640;23.372;2022-12-20T16:13:08;8.50;;;4.93;;
69369;SDS011;56530;42.640;23.372;2022-12-20T16:15:40;7.00;;;4.80;;
69369;SDS011;56530;42.640;23.372;2022-12-20T16:18:06;8.50;;;5.07;;
69369;SDS011;56530;42.640;23.372;2022-12-20T16:20:32;6.60;;;4.63;;
69369;SDS011;56530;42.640;23.372;2022-12-20T16:22:57;4.87;;;3.73;;
69369;SDS011;56530;42.640;23.372;2022-12-20T16:25:41;11.20;;;4.40;;
69369;SDS011;56530;42.640;23.372;2022-12-20T16:28:06;6.43;;;4.70;;
69369;SDS011;56530;42.640;23.372;2022-12-20T16:30:32;5.63;;;3.63;;
69369;SDS011;56530;42.640;23.372;2022-12-20T16:32:59;7.53;;;4.63;;
69369;SDS011;56530;42.640;23.372;2022-12-20T16:35:26;8.03;;;4.97;;